Portada
METAR-TAF:

METAR-TAF

Aeroports :

Brageirac, França

latitud: 44-49N, longitud: 000-31E, altitud: 51 m

Observació

L'informe es va fer fa 6 hores i 40 minuts, a les 05:00 UTC
Vent calma
Temperatura 15°C
Humitat 94%
Pressió 1018 hPa
Visibilitat 10 km o més
sense núvols per sota de 1500 mi sense presència de cumulonimbus.

METAR: LFBE 210500Z AUTO 00000KT CAVOK 15/14 Q1018 NOSIG

Hora: 13:40 (11:40 UTC)

Pronòstic

L'informe es va fer fa 6 hores i 40 minuts, a les 05:00 UTC
Pronòstic vàlid del 21 a les 06 UTC al 22 a les 06 UTC
Vent 2 kt amb direcció variable
Visibilitat 10 km o més
sense núvols per sota de 1500 mi sense presència de cumulonimbus.
Temporalment
l' 21 a les 12 UTC al 21 a les 18 UTC
Vent 7 kt del Nord
Probabilitat 30%
l' 22 a les 03 UTC al 22 a les 06 UTC
Visibilitat: 3000 m
boirina

TAF: LFBE 210500Z 2106/2206 VRB02KT CAVOK TEMPO 2112/2118 36007KT PROB30 2203/2206 3000 BR

Observacions i pronòstics meteorològics de més de 4000 aeroports (METAR i TAF).

Les estacions disponibles són els punts grocs i vermells al mapa.

Posi el ratolí al punt desitjat per veure el nom de l'estació.

Feu clic per veure les observacions i els pronòstics meteorològics.

Per canviar el mapa: feu clic els botons verds amb una creu de color negre per apropar; al botó verd amb un guió per allunyar la imatge; o en les fletxes verdes per a mapes adjacents.


METAR-TAF: